Time;durP1;ratioP1;P1;durP2;ratioP2;P2;SDS_P1;SDS_P2;PMS_P1;PMS_P2;Temp;Humidity;BMP_temperature;BMP_pressure;BME280_temperature;BME280_humidity;BME280_pressure;Samples;Min_cycle;Max_cycle;Signal;HPM_P1;HPM_P2
2021/12/09 00:02:57;;;;;;;51.55;25.00;;;;;;;;;;6269140;28;20045;-66
2021/12/09 00:06:00;;;;;;;49.92;24.60;;;;;;;;;;6270887;28;20069;-66
2021/12/09 00:09:08;;;;;;;54.47;24.60;;;;;;;;;;6269964;28;20412;-66
2021/12/09 00:12:11;;;;;;;48.85;23.17;;;;;;;;;;6270611;28;20098;-66
2021/12/09 00:15:14;;;;;;;53.58;24.65;;;;;;;;;;6270304;28;20053;-66
2021/12/09 00:18:17;;;;;;;48.65;24.80;;;;;;;;;;6270885;28;20415;-66
2021/12/09 00:21:20;;;;;;;53.65;23.70;;;;;;;;;;6269277;28;20127;-66
2021/12/09 00:24:25;;;;;;;49.78;24.15;;;;;;;;;;6269863;28;20053;-66
2021/12/09 00:27:28;;;;;;;51.88;24.73;;;;;;;;;;6269351;28;20045;-66
2021/12/09 00:30:31;;;;;;;49.30;23.85;;;;;;;;;;6270686;28;20127;-66
2021/12/09 00:33:40;;;;;;;49.63;24.00;;;;;;;;;;6269668;28;20106;-66
2021/12/09 00:36:56;;;;;;;52.17;25.13;;;;;;;;;;6268544;28;20438;-66
2021/12/09 00:40:00;;;;;;;50.70;25.00;;;;;;;;;;6268638;28;20056;-66
2021/12/09 00:43:05;;;;;;;54.75;25.20;;;;;;;;;;6270394;28;20045;-66
2021/12/09 00:46:08;;;;;;;51.30;24.63;;;;;;;;;;6267851;28;20475;-66
2021/12/09 00:49:12;;;;;;;48.50;22.98;;;;;;;;;;6269911;28;20064;-66
2021/12/09 00:52:16;;;;;;;51.53;25.65;;;;;;;;;;6269819;28;20044;-66
2021/12/09 00:55:23;;;;;;;52.28;25.30;;;;;;;;;;6268406;28;20060;-67
2021/12/09 00:58:26;;;;;;;55.45;24.45;;;;;;;;;;6268000;28;20459;-66
2021/12/09 01:01:31;;;;;;;51.90;24.83;;;;;;;;;;6268614;28;20484;-66
2021/12/09 01:04:34;;;;;;;53.95;25.45;;;;;;;;;;6269504;28;20041;-67
2021/12/09 01:07:38;;;;;;;55.10;25.80;;;;;;;;;;6267303;28;20057;-66
2021/12/09 01:10:42;;;;;;;58.83;25.45;;;;;;;;;;6268297;28;20045;-66
2021/12/09 01:13:45;;;;;;;53.08;25.38;;;;;;;;;;6269689;28;20123;-67
2021/12/09 01:16:48;;;;;;;55.72;26.40;;;;;;;;;;6268911;28;20411;-67
2021/12/09 01:19:52;;;;;;;55.33;26.40;;;;;;;;;;6268862;28;20049;-67
2021/12/09 01:22:57;;;;;;;58.60;26.58;;;;;;;;;;6269664;28;20041;-66
2021/12/09 01:26:03;;;;;;;61.63;26.77;;;;;;;;;;6268843;28;20128;-67
2021/12/09 01:29:13;;;;;;;55.67;26.02;;;;;;;;;;6268500;28;20045;-66
2021/12/09 01:32:23;;;;;;;57.65;25.35;;;;;;;;;;6267469;28;20056;-67
2021/12/09 01:35:30;;;;;;;52.60;25.63;;;;;;;;;;6266982;28;20056;-66
2021/12/09 01:38:33;;;;;;;51.90;25.10;;;;;;;;;;6268088;28;20124;-66
2021/12/09 01:41:39;;;;;;;57.88;26.13;;;;;;;;;;6290670;28;20056;-67
2021/12/09 01:44:42;;;;;;;57.88;26.15;;;;;;;;;;6292757;28;20202;-66
2021/12/09 01:47:45;;;;;;;52.35;24.70;;;;;;;;;;6292723;28;20048;-66
2021/12/09 01:50:50;;;;;;;52.47;25.60;;;;;;;;;;6274245;28;20055;-66
2021/12/09 01:53:54;;;;;;;61.72;26.58;;;;;;;;;;6267804;28;20052;-66
2021/12/09 01:56:59;;;;;;;54.60;24.35;;;;;;;;;;6277460;28;20055;-66
2021/12/09 02:00:03;;;;;;;57.53;25.20;;;;;;;;;;6265989;28;20698;-66
2021/12/09 02:03:06;;;;;;;81.13;35.63;;;;;;;;;;6266546;28;20049;-67
2021/12/09 02:06:09;;;;;;;50.90;24.15;;;;;;;;;;6268262;28;20095;-66
2021/12/09 02:09:13;;;;;;;51.70;24.58;;;;;;;;;;6267485;28;20111;-66
2021/12/09 02:12:20;;;;;;;52.13;23.75;;;;;;;;;;6281970;28;20483;-66
2021/12/09 02:15:25;;;;;;;50.63;23.30;;;;;;;;;;6284200;28;20040;-66
2021/12/09 02:18:31;;;;;;;47.60;23.05;;;;;;;;;;6293261;28;20045;-66
2021/12/09 02:21:36;;;;;;;53.53;23.27;;;;;;;;;;6290849;28;20454;-66
2021/12/09 02:24:42;;;;;;;45.58;21.35;;;;;;;;;;6291228;28;20048;-66
2021/12/09 02:27:47;;;;;;;53.97;22.98;;;;;;;;;;6291939;28;20050;-66
2021/12/09 02:30:50;;;;;;;44.45;21.00;;;;;;;;;;6291405;28;20040;-66
2021/12/09 02:33:53;;;;;;;46.05;22.70;;;;;;;;;;6290721;28;20052;-66
2021/12/09 02:36:58;;;;;;;45.50;21.40;;;;;;;;;;6291545;28;20056;-66
2021/12/09 02:40:01;;;;;;;46.33;21.55;;;;;;;;;;6291419;28;20478;-66
2021/12/09 02:43:07;;;;;;;44.90;20.30;;;;;;;;;;6286995;28;20102;-67
2021/12/09 02:46:10;;;;;;;50.03;22.40;;;;;;;;;;6276202;28;20048;-67
2021/12/09 02:49:17;;;;;;;45.92;21.15;;;;;;;;;;6266741;28;20052;-67
2021/12/09 02:52:21;;;;;;;49.75;21.38;;;;;;;;;;6267406;28;20103;-67
2021/12/09 02:55:24;;;;;;;44.20;21.33;;;;;;;;;;6265450;28;20041;-67
2021/12/09 02:58:27;;;;;;;45.03;19.67;;;;;;;;;;6267753;28;20052;-67
2021/12/09 03:01:34;;;;;;;44.58;21.45;;;;;;;;;;6266446;28;20048;-67
2021/12/09 03:04:39;;;;;;;42.33;20.42;;;;;;;;;;6266610;28;20056;-67
2021/12/09 03:07:46;;;;;;;43.83;19.85;;;;;;;;;;6266757;28;20072;-66
2021/12/09 03:10:51;;;;;;;44.40;20.58;;;;;;;;;;6266798;28;20087;-67
2021/12/09 03:13:54;;;;;;;45.17;20.10;;;;;;;;;;6265629;28;20445;-67
2021/12/09 03:16:57;;;;;;;44.80;20.63;;;;;;;;;;6265278;28;20551;-67
2021/12/09 03:20:03;;;;;;;45.10;20.20;;;;;;;;;;6266361;28;20051;-67
2021/12/09 03:23:07;;;;;;;48.75;19.40;;;;;;;;;;6266160;28;20075;-67
2021/12/09 03:26:10;;;;;;;46.25;20.83;;;;;;;;;;6265163;28;20045;-67
2021/12/09 03:29:14;;;;;;;44.30;21.02;;;;;;;;;;6267002;28;20052;-67
2021/12/09 03:32:21;;;;;;;46.97;21.27;;;;;;;;;;6267841;28;20523;-67
2021/12/09 03:35:24;;;;;;;47.85;21.15;;;;;;;;;;6265392;28;20130;-67
2021/12/09 03:38:29;;;;;;;45.90;20.63;;;;;;;;;;6265054;28;20041;-67
2021/12/09 03:41:32;;;;;;;45.88;21.08;;;;;;;;;;6266000;28;20131;-67
2021/12/09 03:44:35;;;;;;;42.80;19.83;;;;;;;;;;6267047;28;20041;-67
2021/12/09 03:47:38;;;;;;;46.58;20.30;;;;;;;;;;6264786;28;20381;-67
2021/12/09 03:50:43;;;;;;;47.17;21.83;;;;;;;;;;6267214;28;20412;-67
2021/12/09 03:53:47;;;;;;;43.28;20.33;;;;;;;;;;6265851;28;20072;-67
2021/12/09 03:56:53;;;;;;;42.17;18.90;;;;;;;;;;6266465;28;20048;-67
2021/12/09 03:59:56;;;;;;;42.38;19.58;;;;;;;;;;6266241;28;20045;-67
2021/12/09 04:03:02;;;;;;;;;;;;;;;;;;6266368;28;20049;-67
2021/12/09 04:06:07;;;;;;;43.70;19.45;;;;;;;;;;6265484;28;19921;-67
2021/12/09 04:09:13;;;;;;;40.25;18.83;;;;;;;;;;6265629;28;20053;-67
2021/12/09 04:12:16;;;;;;;39.65;19.85;;;;;;;;;;6265603;28;20080;-67
2021/12/09 04:15:19;;;;;;;41.22;18.50;;;;;;;;;;6268187;28;20041;-68
2021/12/09 04:18:24;;;;;;;37.47;19.25;;;;;;;;;;6269721;28;20133;-67
2021/12/09 04:21:27;;;;;;;43.20;18.60;;;;;;;;;;6270571;28;20098;-67
2021/12/09 04:24:32;;;;;;;40.00;18.65;;;;;;;;;;6270039;28;20045;-67
2021/12/09 04:27:37;;;;;;;40.65;19.15;;;;;;;;;;6269709;28;20045;-67
2021/12/09 04:30:40;;;;;;;39.22;18.85;;;;;;;;;;6269877;28;20059;-68
2021/12/09 04:33:44;;;;;;;39.80;18.42;;;;;;;;;;6270872;28;20045;-67
2021/12/09 04:36:48;;;;;;;39.17;18.90;;;;;;;;;;6270027;28;20114;-67
2021/12/09 04:39:52;;;;;;;36.65;17.25;;;;;;;;;;6268551;28;20407;-67
2021/12/09 04:42:58;;;;;;;40.80;18.38;;;;;;;;;;6270194;28;20396;-68
2021/12/09 04:46:02;;;;;;;37.00;17.88;;;;;;;;;;6270835;28;20048;-67
2021/12/09 04:49:07;;;;;;;36.60;18.80;;;;;;;;;;6269357;28;20053;-67
2021/12/09 04:52:13;;;;;;;37.25;16.85;;;;;;;;;;6268244;28;20282;-67
2021/12/09 04:55:17;;;;;;;32.88;15.77;;;;;;;;;;6269028;28;20505;-67
2021/12/09 04:58:23;;;;;;;34.97;17.33;;;;;;;;;;6270339;28;20403;-67
2021/12/09 05:01:26;;;;;;;32.67;16.63;;;;;;;;;;6269111;28;20513;-67
2021/12/09 05:04:29;;;;;;;33.63;16.27;;;;;;;;;;6268548;28;20048;-67
2021/12/09 05:07:32;;;;;;;34.22;15.93;;;;;;;;;;6268825;28;20519;-68
2021/12/09 05:10:52;;;;;;;34.50;17.23;;;;;;;;;;6269693;28;20041;-68
2021/12/09 05:13:55;;;;;;;35.45;16.73;;;;;;;;;;6268934;28;20391;-68
2021/12/09 05:16:58;;;;;;;32.00;16.02;;;;;;;;;;6270018;28;20049;-67
2021/12/09 05:20:01;;;;;;;33.30;16.00;;;;;;;;;;6268615;28;20683;-68
2021/12/09 05:23:04;;;;;;;28.45;14.30;;;;;;;;;;6267959;28;20476;-68
2021/12/09 05:26:10;;;;;;;29.15;15.13;;;;;;;;;;6268029;28;20513;-68
2021/12/09 05:29:27;;;;;;;39.08;16.08;;;;;;;;;;6268552;28;20098;-68
2021/12/09 05:32:30;;;;;;;36.28;15.75;;;;;;;;;;6269711;28;20047;-68
2021/12/09 05:35:34;;;;;;;31.80;15.85;;;;;;;;;;6267040;28;20545;-68
2021/12/09 05:38:37;;;;;;;30.75;15.57;;;;;;;;;;6267889;28;20067;-68
2021/12/09 05:41:43;;;;;;;30.05;15.90;;;;;;;;;;6269480;28;20041;-68
2021/12/09 05:44:46;;;;;;;32.60;15.80;;;;;;;;;;6269136;28;20045;-68
2021/12/09 05:47:52;;;;;;;33.83;16.13;;;;;;;;;;6278455;28;20044;-68
2021/12/09 05:50:55;;;;;;;34.95;16.35;;;;;;;;;;6267961;28;20053;-68
2021/12/09 05:54:00;;;;;;;35.50;17.13;;;;;;;;;;6267439;28;20048;-68
2021/12/09 05:57:05;;;;;;;34.72;16.45;;;;;;;;;;6266683;28;20041;-68
2021/12/09 06:00:09;;;;;;;37.67;18.52;;;;;;;;;;6267723;28;20110;-69
2021/12/09 06:03:16;;;;;;;38.92;17.50;;;;;;;;;;6268881;28;20132;-67
2021/12/09 06:06:21;;;;;;;37.88;18.73;;;;;;;;;;6267896;28;20060;-68
2021/12/09 06:09:24;;;;;;;38.45;18.67;;;;;;;;;;6266630;28;20126;-68
2021/12/09 06:12:29;;;;;;;37.63;19.77;;;;;;;;;;6268691;28;20381;-67
2021/12/09 06:15:32;;;;;;;42.70;19.67;;;;;;;;;;6266814;28;20044;-67
2021/12/09 06:18:35;;;;;;;42.10;19.38;;;;;;;;;;6267347;28;20047;-67
2021/12/09 06:21:39;;;;;;;42.08;19.98;;;;;;;;;;6267261;28;20049;-66
2021/12/09 06:24:44;;;;;;;41.63;19.88;;;;;;;;;;6267955;28;20041;-66
2021/12/09 06:27:50;;;;;;;44.05;20.52;;;;;;;;;;6267192;28;20418;-66
2021/12/09 06:30:53;;;;;;;42.90;19.88;;;;;;;;;;6267987;28;20049;-66
2021/12/09 06:33:58;;;;;;;45.58;20.55;;;;;;;;;;6266837;28;20423;-66
2021/12/09 06:37:01;;;;;;;40.40;20.08;;;;;;;;;;6267684;28;20053;-67
2021/12/09 06:40:08;;;;;;;37.17;19.25;;;;;;;;;;6266783;28;20071;-67
2021/12/09 06:43:16;;;;;;;42.50;19.80;;;;;;;;;;6266528;28;20436;-67
2021/12/09 06:46:18;;;;;;;37.13;18.50;;;;;;;;;;6282221;28;20045;-66
2021/12/09 06:49:25;;;;;;;44.20;19.95;;;;;;;;;;6275195;28;20052;-67
2021/12/09 06:52:28;;;;;;;35.63;17.92;;;;;;;;;;6292287;28;20074;-66
2021/12/09 06:55:31;;;;;;;41.35;19.30;;;;;;;;;;6285893;28;20053;-67
2021/12/09 06:58:36;;;;;;;38.45;18.45;;;;;;;;;;6265752;28;20048;-67
2021/12/09 07:01:39;;;;;;;38.20;18.35;;;;;;;;;;6266862;28;20460;-66
2021/12/09 07:04:42;;;;;;;34.75;17.35;;;;;;;;;;6267707;28;20056;-67
2021/12/09 07:07:46;;;;;;;35.85;17.55;;;;;;;;;;6265904;28;20444;-66
2021/12/09 07:10:49;;;;;;;37.08;17.52;;;;;;;;;;6266396;28;20060;-67
2021/12/09 07:13:54;;;;;;;35.97;17.45;;;;;;;;;;6266049;28;20569;-66
2021/12/09 07:16:57;;;;;;;33.15;15.45;;;;;;;;;;6266129;28;20051;-66
2021/12/09 07:20:01;;;;;;;31.92;15.40;;;;;;;;;;6265374;28;20382;-66
2021/12/09 07:23:04;;;;;;;34.70;17.63;;;;;;;;;;6265320;28;20510;-66
2021/12/09 07:26:07;;;;;;;33.25;17.13;;;;;;;;;;6267285;28;20044;-66
2021/12/09 07:29:11;;;;;;;38.78;17.73;;;;;;;;;;6265753;28;20136;-66
2021/12/09 07:32:17;;;;;;;33.15;17.25;;;;;;;;;;6266148;28;20048;-65
2021/12/09 07:35:23;;;;;;;31.30;15.70;;;;;;;;;;6267138;28;20135;-65
2021/12/09 07:38:28;;;;;;;34.45;16.30;;;;;;;;;;6267079;28;20056;-66
2021/12/09 07:41:31;;;;;;;33.47;16.40;;;;;;;;;;6266715;28;20037;-66
2021/12/09 07:44:35;;;;;;;34.30;16.17;;;;;;;;;;6265159;28;20072;-66
2021/12/09 07:47:38;;;;;;;37.72;17.42;;;;;;;;;;6267234;28;20048;-66
2021/12/09 07:50:42;;;;;;;36.75;16.85;;;;;;;;;;6268205;28;20048;-66
2021/12/09 07:53:45;;;;;;;33.70;15.43;;;;;;;;;;6274106;28;20039;-65
2021/12/09 07:56:48;;;;;;;31.70;16.20;;;;;;;;;;6281153;28;20033;-66
2021/12/09 07:59:52;;;;;;;35.53;17.20;;;;;;;;;;6280701;28;20406;-66
2021/12/09 08:02:56;;;;;;;33.97;16.38;;;;;;;;;;6282939;28;20047;-65
2021/12/09 08:06:02;;;;;;;32.95;16.60;;;;;;;;;;6280981;28;20080;-65
2021/12/09 08:09:09;;;;;;;35.38;16.52;;;;;;;;;;6283805;28;20060;-68
2021/12/09 08:12:12;;;;;;;36.47;16.70;;;;;;;;;;6282683;28;20452;-67
2021/12/09 08:15:17;;;;;;;33.53;15.35;;;;;;;;;;6271563;28;20045;-67
2021/12/09 08:18:32;;;;;;;35.00;15.57;;;;;;;;;;6271463;28;20122;-66
2021/12/09 08:21:37;;;;;;;37.00;16.83;;;;;;;;;;6271168;28;20060;-66
2021/12/09 08:24:40;;;;;;;32.40;16.77;;;;;;;;;;6268980;28;20067;-66
2021/12/09 08:27:43;;;;;;;37.60;17.52;;;;;;;;;;6270510;28;20053;-67
2021/12/09 08:30:50;;;;;;;34.88;15.93;;;;;;;;;;6270988;28;20095;-66
2021/12/09 08:33:53;;;;;;;35.33;17.40;;;;;;;;;;6270515;28;20488;-67
2021/12/09 08:37:16;;;;;;;35.72;16.70;;;;;;;;;;6269599;28;20048;-66
2021/12/09 08:40:20;;;;;;;32.67;16.38;;;;;;;;;;6270848;28;20102;-66
2021/12/09 08:43:25;;;;;;;33.13;16.70;;;;;;;;;;6270738;28;20041;-66
2021/12/09 08:46:30;;;;;;;37.28;15.77;;;;;;;;;;6268653;28;20056;-66
2021/12/09 08:49:33;;;;;;;35.75;17.02;;;;;;;;;;6268451;28;20057;-67
2021/12/09 08:52:36;;;;;;;34.83;15.13;;;;;;;;;;6270771;28;20048;-66
2021/12/09 08:55:42;;;;;;;33.83;16.73;;;;;;;;;;6271290;28;20056;-67
2021/12/09 08:58:46;;;;;;;36.45;16.90;;;;;;;;;;6269211;28;20460;-67
2021/12/09 09:01:51;;;;;;;35.63;15.88;;;;;;;;;;6270085;28;20055;-66
2021/12/09 09:04:58;;;;;;;31.52;15.20;;;;;;;;;;6284474;28;20067;-66
2021/12/09 09:08:01;;;;;;;33.05;16.35;;;;;;;;;;6292763;28;20060;-67
2021/12/09 09:11:04;;;;;;;34.78;16.40;;;;;;;;;;6291542;28;20053;-66
2021/12/09 09:14:09;;;;;;;32.90;16.07;;;;;;;;;;6295059;28;20041;-66
2021/12/09 09:17:14;;;;;;;41.47;18.10;;;;;;;;;;6288968;28;20063;-67
2021/12/09 09:20:17;;;;;;;31.95;16.10;;;;;;;;;;6268738;28;20610;-66
2021/12/09 09:23:22;;;;;;;29.90;14.43;;;;;;;;;;6268524;28;20045;-67
2021/12/09 09:26:27;;;;;;;37.42;17.00;;;;;;;;;;6268435;28;20037;-67
2021/12/09 09:29:34;;;;;;;32.15;15.25;;;;;;;;;;6267987;28;20049;-67
2021/12/09 09:32:38;;;;;;;34.60;17.08;;;;;;;;;;6269097;28;20410;-67
2021/12/09 09:35:44;;;;;;;35.97;15.90;;;;;;;;;;6285086;28;20174;-67
2021/12/09 09:38:47;;;;;;;38.70;18.00;;;;;;;;;;6278266;28;20047;-66
2021/12/09 09:41:59;;;;;;;38.40;17.55;;;;;;;;;;6276613;28;20045;-67
2021/12/09 09:45:04;;;;;;;29.58;15.57;;;;;;;;;;6269341;28;20049;-66
2021/12/09 09:48:11;;;;;;;32.45;15.82;;;;;;;;;;6269316;28;20052;-66
2021/12/09 09:51:15;;;;;;;41.40;16.95;;;;;;;;;;6268462;28;20051;-65
2021/12/09 09:54:18;;;;;;;35.20;16.42;;;;;;;;;;6268516;28;20049;-66
2021/12/09 09:57:22;;;;;;;39.33;18.23;;;;;;;;;;6268970;28;20124;-66
2021/12/09 10:00:27;;;;;;;35.92;17.83;;;;;;;;;;6268003;28;20053;-66
2021/12/09 10:03:34;;;;;;;34.42;16.25;;;;;;;;;;6280660;28;20033;-66
2021/12/09 10:06:39;;;;;;;33.75;16.15;;;;;;;;;;6275853;28;20052;-66
2021/12/09 10:09:42;;;;;;;51.83;24.20;;;;;;;;;;6273210;28;20048;-68
2021/12/09 10:12:58;;;;;;;42.92;21.48;;;;;;;;;;6288085;28;20378;-68
2021/12/09 10:16:04;;;;;;;35.83;17.40;;;;;;;;;;6291007;28;20053;-68
2021/12/09 10:19:16;;;;;;;37.65;17.77;;;;;;;;;;6278253;28;20040;-68
2021/12/09 10:22:20;;;;;;;37.20;17.23;;;;;;;;;;6266550;28;20060;-68
2021/12/09 10:25:24;;;;;;;35.55;16.13;;;;;;;;;;6266918;28;20052;-67
2021/12/09 10:28:27;;;;;;;34.85;16.00;;;;;;;;;;6267826;28;20499;-67
2021/12/09 10:31:33;;;;;;;33.55;16.63;;;;;;;;;;6267186;28;20051;-68
2021/12/09 10:34:40;;;;;;;34.33;15.98;;;;;;;;;;6266906;28;20045;-67
2021/12/09 10:37:43;;;;;;;33.50;15.57;;;;;;;;;;6265490;28;20048;-68
2021/12/09 10:40:46;;;;;;;35.92;17.38;;;;;;;;;;6266795;28;20123;-67
2021/12/09 10:43:50;;;;;;;39.97;17.27;;;;;;;;;;6265968;28;20044;-67
2021/12/09 10:47:04;;;;;;;32.03;15.32;;;;;;;;;;6266480;28;20127;-68
2021/12/09 10:50:17;;;;;;;39.90;18.48;;;;;;;;;;6266305;28;20064;-67
2021/12/09 10:53:33;;;;;;;33.85;16.35;;;;;;;;;;6267718;28;20529;-67
2021/12/09 10:56:36;;;;;;;;;;;;;;;;;;6266111;28;20463;-67
2021/12/09 10:59:39;;;;;;;32.75;15.70;;;;;;;;;;6266653;28;19920;-67
2021/12/09 11:02:57;;;;;;;34.33;16.30;;;;;;;;;;6266660;28;20045;-67
2021/12/09 11:06:05;;;;;;;34.55;15.25;;;;;;;;;;6267361;28;20072;-67
2021/12/09 11:09:12;;;;;;;36.40;17.08;;;;;;;;;;6264996;28;20048;-68
2021/12/09 11:12:26;;;;;;;32.88;15.95;;;;;;;;;;6266435;28;20061;-67
2021/12/09 11:15:44;;;;;;;80.45;34.83;;;;;;;;;;6266098;28;20454;-68
2021/12/09 11:18:47;;;;;;;209.85;94.20;;;;;;;;;;6266913;28;20126;-67
2021/12/09 11:21:56;;;;;;;32.97;17.75;;;;;;;;;;6266246;28;20040;-67
2021/12/09 11:25:04;;;;;;;36.33;18.40;;;;;;;;;;6268107;28;20044;-67
2021/12/09 11:28:10;;;;;;;34.50;16.30;;;;;;;;;;6269951;28;20099;-67
2021/12/09 11:31:16;;;;;;;;;;;;;;;;;;6271834;28;20045;-67
2021/12/09 11:34:23;;;;;;;;;;;;;;;;;;6270172;28;19928;-67
2021/12/09 11:37:40;;;;;;;31.45;14.23;;;;;;;;;;6272057;28;19943;-67
2021/12/09 11:40:47;;;;;;;42.33;17.73;;;;;;;;;;6272126;28;20044;-67
2021/12/09 11:43:54;;;;;;;38.35;16.25;;;;;;;;;;6269624;28;20076;-68
2021/12/09 11:46:57;;;;;;;37.63;16.92;;;;;;;;;;6270828;28;20052;-67
2021/12/09 11:50:00;;;;;;;36.72;16.83;;;;;;;;;;6253460;28;20388;-67
2021/12/09 11:53:05;;;;;;;34.72;16.58;;;;;;;;;;6269261;28;20048;-68
2021/12/09 11:56:20;;;;;;;42.28;17.80;;;;;;;;;;6270208;28;20496;-67
2021/12/09 12:06:36;;;;;;;43.65;17.13;;;;;;;;;;6268018;28;20049;-67
2021/12/09 12:07:11;;;;;;;41.33;17.73;;;;;;;;;;6268203;28;20053;-66
2021/12/09 12:13:52;;;;;;;37.60;16.98;;;;;;;;;;6267087;28;20115;-68
2021/12/09 12:17:09;;;;;;;43.55;17.85;;;;;;;;;;6267696;28;20072;-67
2021/12/09 12:20:26;;;;;;;39.60;17.38;;;;;;;;;;6271001;28;20495;-68
2021/12/09 12:23:35;;;;;;;34.38;17.48;;;;;;;;;;6269240;28;20040;-68
2021/12/09 12:26:57;;;;;;;34.85;16.65;;;;;;;;;;6269654;28;20045;-67
2021/12/09 12:33:30;;;;;;;39.25;17.73;;;;;;;;;;6270548;28;20270;-67
2021/12/09 12:37:19;;;;;;;41.65;18.38;;;;;;;;;;6269431;28;20048;-68
2021/12/09 12:40:31;;;;;;;42.47;18.85;;;;;;;;;;6270002;28;20044;-67
2021/12/09 12:43:42;;;;;;;37.90;17.58;;;;;;;;;;6268014;28;20068;-67
2021/12/09 12:46:55;;;;;;;39.65;18.27;;;;;;;;;;6270087;28;20464;-67
2021/12/09 12:50:08;;;;;;;36.85;16.23;;;;;;;;;;6268854;28;20440;-67
2021/12/09 12:53:34;;;;;;;38.80;16.50;;;;;;;;;;6268512;28;20494;-67
2021/12/09 12:56:40;;;;;;;41.95;19.27;;;;;;;;;;6267814;28;20056;-67
2021/12/09 13:00:00;;;;;;;40.17;16.85;;;;;;;;;;6268784;28;20479;-67
2021/12/09 13:03:15;;;;;;;39.15;18.50;;;;;;;;;;6268760;28;20131;-67
2021/12/09 13:06:45;;;;;;;41.85;18.08;;;;;;;;;;6268221;28;20045;-67
2021/12/09 13:10:02;;;;;;;42.10;18.23;;;;;;;;;;6267295;28;20431;-67
2021/12/09 13:13:14;;;;;;;38.95;17.65;;;;;;;;;;6269551;28;20049;-66
2021/12/09 13:16:23;;;;;;;44.10;19.42;;;;;;;;;;6268964;28;20048;-67
2021/12/09 13:19:38;;;;;;;39.08;17.33;;;;;;;;;;6268033;28;20049;-68
2021/12/09 13:22:42;;;;;;;42.17;18.10;;;;;;;;;;6268482;28;20135;-67
2021/12/09 13:25:59;;;;;;;39.90;18.98;;;;;;;;;;6268232;28;20041;-67
2021/12/09 13:29:04;;;;;;;37.75;18.75;;;;;;;;;;6269584;28;20055;-68
2021/12/09 13:32:41;;;;;;;42.22;19.33;;;;;;;;;;6267472;28;20045;-67
2021/12/09 13:46:06;;;;;;;39.10;18.58;;;;;;;;;;6268757;28;20060;-67
2021/12/09 13:49:22;;;;;;;42.75;17.42;;;;;;;;;;6267256;28;20045;-67
2021/12/09 13:55:46;;;;;;;47.78;19.75;;;;;;;;;;6268732;28;20426;-67
2021/12/09 13:58:50;;;;;;;43.03;19.20;;;;;;;;;;6268674;28;20535;-67
2021/12/09 14:01:53;;;;;;;98.35;43.05;;;;;;;;;;6267716;28;20048;-68
2021/12/09 14:04:59;;;;;;;41.60;20.25;;;;;;;;;;6268029;28;20045;-67
2021/12/09 14:08:06;;;;;;;48.53;19.70;;;;;;;;;;6268536;28;20435;-67
2021/12/09 14:11:15;;;;;;;42.25;18.58;;;;;;;;;;6267833;28;20045;-67
2021/12/09 14:14:20;;;;;;;42.38;18.25;;;;;;;;;;6267056;28;20128;-67
2021/12/09 14:17:25;;;;;;;39.13;19.00;;;;;;;;;;6267017;28;20055;-67
2021/12/09 14:20:30;;;;;;;43.90;19.02;;;;;;;;;;6267984;28;20075;-67
2021/12/09 14:23:33;;;;;;;49.58;20.90;;;;;;;;;;6268489;28;20041;-67
2021/12/09 14:26:37;;;;;;;42.80;18.95;;;;;;;;;;6269216;23;20083;-67
2021/12/09 14:29:44;;;;;;;39.22;18.23;;;;;;;;;;6219769;28;20050;-67
2021/12/09 14:32:48;;;;;;;41.20;18.63;;;;;;;;;;6217899;28;20073;-67
2021/12/09 14:36:05;;;;;;;42.08;18.58;;;;;;;;;;6220958;28;20487;-67
2021/12/09 14:39:12;;;;;;;44.25;19.73;;;;;;;;;;6220031;28;20380;-67
2021/12/09 14:42:19;;;;;;;36.20;17.85;;;;;;;;;;6220421;28;20471;-67
2021/12/09 14:45:23;;;;;;;39.17;17.35;;;;;;;;;;6219017;28;20187;-67
2021/12/09 14:48:28;;;;;;;36.70;17.83;;;;;;;;;;6219871;28;20060;-67
2021/12/09 14:51:33;;;;;;;37.35;17.50;;;;;;;;;;6220836;28;20431;-67
2021/12/09 14:54:39;;;;;;;46.90;19.50;;;;;;;;;;6218696;28;20140;-67
2021/12/09 14:57:56;;;;;;;45.55;19.88;;;;;;;;;;6219673;28;20041;-67
2021/12/09 15:01:03;;;;;;;43.50;18.40;;;;;;;;;;6220390;28;20124;-66
2021/12/09 15:04:15;;;;;;;47.45;19.92;;;;;;;;;;6220224;28;20050;-66
2021/12/09 15:07:32;;;;;;;42.95;18.85;;;;;;;;;;6217903;28;20041;-66
2021/12/09 15:10:38;;;;;;;43.17;18.27;;;;;;;;;;6221050;28;20428;-67
2021/12/09 15:13:43;;;;;;;43.77;19.37;;;;;;;;;;6219482;28;20057;-68
2021/12/09 15:16:46;;;;;;;38.03;17.40;;;;;;;;;;6218185;28;20061;-67
2021/12/09 15:20:02;;;;;;;42.42;18.55;;;;;;;;;;6220068;28;20042;-67
2021/12/09 15:23:12;;;;;;;42.45;17.50;;;;;;;;;;6220466;28;20056;-66
2021/12/09 15:26:23;;;;;;;39.92;18.33;;;;;;;;;;6219508;28;20061;-67
2021/12/09 15:29:26;;;;;;;42.92;17.73;;;;;;;;;;6217862;28;20054;-67
2021/12/09 15:32:32;;;;;;;44.40;17.65;;;;;;;;;;6218876;28;20046;-67
2021/12/09 15:35:35;;;;;;;53.30;18.77;;;;;;;;;;6218956;28;20052;-67
2021/12/09 15:38:41;;;;;;;46.60;19.33;;;;;;;;;;6216939;28;20403;-67
2021/12/09 15:41:46;;;;;;;37.55;18.27;;;;;;;;;;6217666;28;20046;-67
2021/12/09 15:44:50;;;;;;;40.42;17.48;;;;;;;;;;6218769;28;20042;-67
2021/12/09 15:47:56;;;;;;;43.67;19.02;;;;;;;;;;6217278;28;20034;-67
2021/12/09 15:51:01;;;;;;;46.28;19.42;;;;;;;;;;6217093;28;20060;-67
2021/12/09 15:54:06;;;;;;;42.97;19.25;;;;;;;;;;6218400;28;20058;-67
2021/12/09 15:57:11;;;;;;;43.28;20.10;;;;;;;;;;6217183;28;20050;-67
2021/12/09 16:00:16;;;;;;;40.23;18.13;;;;;;;;;;6217877;28;20057;-67
2021/12/09 16:03:21;;;;;;;49.30;21.10;;;;;;;;;;6217110;28;20076;-67
2021/12/09 16:06:25;;;;;;;47.78;20.92;;;;;;;;;;6217234;28;20042;-67
2021/12/09 16:09:30;;;;;;;50.15;20.23;;;;;;;;;;6217344;28;20054;-67
2021/12/09 16:12:33;;;;;;;41.80;21.58;;;;;;;;;;6219817;28;20042;-67
2021/12/09 16:15:49;;;;;;;44.05;20.20;;;;;;;;;;6223022;28;20042;-67
2021/12/09 16:18:58;;;;;;;41.63;20.65;;;;;;;;;;6221042;28;20196;-67
2021/12/09 16:22:28;;;;;;;36.33;18.48;;;;;;;;;;6220898;28;20041;-67
2021/12/09 16:25:35;;;;;;;41.60;19.65;;;;;;;;;;6218203;28;20058;-67
2021/12/09 16:28:40;;;;;;;44.00;18.33;;;;;;;;;;6220397;28;20037;-67
2021/12/09 16:31:44;;;;;;;38.58;19.20;;;;;;;;;;6220844;28;20169;-67
2021/12/09 16:34:48;;;;;;;44.50;19.00;;;;;;;;;;6221695;28;20041;-67
2021/12/09 16:37:52;;;;;;;39.85;17.52;;;;;;;;;;6221588;28;20125;-67
2021/12/09 16:40:57;;;;;;;40.83;18.38;;;;;;;;;;6222392;28;20088;-67
2021/12/09 16:44:01;;;;;;;41.73;19.17;;;;;;;;;;6222410;28;20045;-68
2021/12/09 16:47:05;;;;;;;34.47;16.15;;;;;;;;;;6218832;28;20042;-68
2021/12/09 16:50:09;;;;;;;34.22;17.30;;;;;;;;;;6221440;28;20042;-67
2021/12/09 16:53:17;;;;;;;35.95;17.00;;;;;;;;;;6221501;28;20054;-67
2021/12/09 16:56:36;;;;;;;32.97;16.42;;;;;;;;;;6218033;28;20146;-67
2021/12/09 16:59:39;;;;;;;31.73;15.60;;;;;;;;;;6221029;28;20052;-67
2021/12/09 17:02:43;;;;;;;33.58;16.75;;;;;;;;;;6221770;28;20431;-67
2021/12/09 17:05:46;;;;;;;32.85;15.90;;;;;;;;;;6220429;28;20140;-67
2021/12/09 17:08:51;;;;;;;34.00;16.92;;;;;;;;;;6219543;28;20500;-67
2021/12/09 17:11:56;;;;;;;44.40;22.07;;;;;;;;;;6221856;28;20124;-67
2021/12/09 17:14:59;;;;;;;32.47;16.10;;;;;;;;;;6221863;28;20299;-67
2021/12/09 17:18:03;;;;;;;26.48;13.45;;;;;;;;;;6219130;28;20104;-67
2021/12/09 17:21:09;;;;;;;29.05;14.57;;;;;;;;;;6220635;28;20054;-68
2021/12/09 17:24:13;;;;;;;30.17;15.45;;;;;;;;;;6220056;28;20126;-68
2021/12/09 17:27:18;;;;;;;30.00;14.90;;;;;;;;;;6219607;28;20053;-68
2021/12/09 17:30:23;;;;;;;33.42;16.38;;;;;;;;;;6219784;28;20111;-68
2021/12/09 17:33:28;;;;;;;34.63;16.85;;;;;;;;;;6221303;28;20046;-67
2021/12/09 17:36:32;;;;;;;30.00;14.65;;;;;;;;;;6220973;28;20496;-68
2021/12/09 17:39:37;;;;;;;32.35;15.82;;;;;;;;;;6219687;28;20077;-67
2021/12/09 17:42:41;;;;;;;30.80;16.40;;;;;;;;;;6220444;28;20041;-67
2021/12/09 17:45:47;;;;;;;31.17;16.45;;;;;;;;;;6220945;28;20056;-67
2021/12/09 17:48:50;;;;;;;36.80;18.52;;;;;;;;;;6219184;28;20053;-66
2021/12/09 17:52:05;;;;;;;29.83;15.75;;;;;;;;;;6217850;28;20049;-67
2021/12/09 17:55:09;;;;;;;38.25;17.58;;;;;;;;;;6220648;28;20046;-67
2021/12/09 17:58:14;;;;;;;36.33;17.63;;;;;;;;;;6219173;28;20116;-67
2021/12/09 18:01:20;;;;;;;32.35;17.30;;;;;;;;;;6218175;28;20054;-67
2021/12/09 18:04:24;;;;;;;106.53;50.00;;;;;;;;;;6218593;28;20053;-68
2021/12/09 18:07:27;;;;;;;37.70;19.55;;;;;;;;;;6220520;28;20053;-67
2021/12/09 18:10:32;;;;;;;35.78;17.45;;;;;;;;;;6218774;28;20049;-67
2021/12/09 18:13:37;;;;;;;36.60;18.30;;;;;;;;;;6218256;28;20405;-67
2021/12/09 18:16:43;;;;;;;38.10;18.10;;;;;;;;;;6220231;28;20062;-67
2021/12/09 18:19:47;;;;;;;36.65;18.45;;;;;;;;;;6220189;28;20049;-67
2021/12/09 18:22:51;;;;;;;42.08;20.90;;;;;;;;;;6217336;28;20045;-67
2021/12/09 18:25:54;;;;;;;48.47;22.67;;;;;;;;;;6219553;28;20050;-67
2021/12/09 18:29:01;;;;;;;39.90;21.65;;;;;;;;;;6220068;28;20045;-67
2021/12/09 18:32:08;;;;;;;46.47;22.20;;;;;;;;;;6202440;28;20060;-67